createdAt,value
2022-10-05T00:00:03.913Z,9.94
2022-10-05T00:01:03.820Z,9.94
2022-10-05T00:02:03.853Z,9.94
2022-10-05T00:03:03.831Z,9.94
2022-10-05T00:04:03.584Z,10.00
2022-10-05T00:05:03.504Z,10.00
2022-10-05T00:06:03.506Z,10.06
2022-10-05T00:07:03.494Z,10.06
2022-10-05T00:08:03.506Z,10.12
2022-10-05T00:09:03.493Z,10.12
2022-10-05T00:10:03.839Z,10.12
2022-10-05T00:11:03.818Z,10.12
2022-10-05T00:12:03.915Z,10.12
2022-10-05T00:13:03.987Z,10.12
2022-10-05T00:14:03.902Z,10.12
2022-10-05T00:15:03.857Z,10.12
2022-10-05T00:16:03.944Z,10.19
2022-10-05T00:17:04.078Z,10.19
2022-10-05T00:18:04.146Z,10.12
2022-10-05T00:19:04.065Z,10.19
2022-10-05T00:20:04.150Z,10.19
2022-10-05T00:21:04.078Z,10.12
2022-10-05T00:22:04.067Z,10.19
2022-10-05T00:23:04.249Z,10.19
2022-10-05T00:24:04.089Z,10.12
2022-10-05T00:25:04.064Z,10.19
2022-10-05T00:26:04.182Z,10.12
2022-10-05T00:27:04.170Z,10.19
2022-10-05T00:28:04.306Z,10.19
2022-10-05T00:29:04.302Z,10.12
2022-10-05T00:30:04.224Z,10.12
2022-10-05T00:31:04.304Z,10.12
2022-10-05T00:32:04.380Z,10.12
2022-10-05T00:33:04.318Z,10.12
2022-10-05T00:34:04.395Z,10.12
2022-10-05T00:35:04.344Z,10.12
2022-10-05T00:36:04.320Z,10.06
2022-10-05T00:37:04.307Z,10.06
2022-10-05T00:38:04.385Z,10.06
2022-10-05T00:39:04.380Z,10.06
2022-10-05T00:40:04.468Z,10.06
2022-10-05T00:41:03.503Z,10.06
2022-10-05T00:42:03.497Z,10.06
2022-10-05T00:43:03.551Z,10.06
2022-10-05T00:44:03.446Z,10.06
2022-10-05T00:45:03.591Z,10.00
2022-10-05T00:46:03.577Z,10.00
2022-10-05T00:47:03.501Z,10.00
2022-10-05T00:48:03.507Z,10.00
2022-10-05T00:49:03.593Z,10.00
2022-10-05T00:50:04.562Z,10.00
2022-10-05T00:51:03.503Z,10.00
2022-10-05T00:52:03.585Z,10.00
2022-10-05T00:53:03.602Z,10.00
2022-10-05T00:54:03.502Z,10.00
2022-10-05T00:55:03.525Z,10.00
2022-10-05T00:56:04.474Z,10.00
2022-10-05T00:57:03.431Z,10.00
2022-10-05T00:58:03.498Z,10.00
2022-10-05T00:59:04.548Z,10.00
2022-10-05T01:00:03.420Z,10.00
2022-10-05T01:01:03.641Z,10.00
2022-10-05T01:02:03.558Z,10.06
2022-10-05T01:03:03.578Z,10.06
2022-10-05T01:04:03.597Z,10.06
2022-10-05T01:05:03.744Z,10.00
2022-10-05T01:06:03.662Z,10.00
2022-10-05T01:07:03.741Z,10.00
2022-10-05T01:08:03.737Z,10.00
2022-10-05T01:09:03.840Z,10.00
2022-10-05T01:10:03.826Z,10.00
2022-10-05T01:11:03.905Z,10.00
2022-10-05T01:12:03.923Z,10.00
2022-10-05T01:13:03.899Z,10.00
2022-10-05T01:14:03.818Z,9.94
2022-10-05T01:15:03.894Z,9.94
2022-10-05T01:16:03.859Z,9.94
2022-10-05T01:17:03.852Z,9.94
2022-10-05T01:18:03.896Z,9.94
2022-10-05T01:19:03.893Z,9.94
2022-10-05T01:20:03.908Z,9.94
2022-10-05T01:21:03.826Z,9.94
2022-10-05T01:22:03.982Z,9.94
2022-10-05T01:23:04.075Z,9.94
2022-10-05T01:24:03.987Z,9.94
2022-10-05T01:25:03.987Z,9.88
2022-10-05T01:26:03.990Z,9.88
2022-10-05T01:27:03.977Z,9.88
2022-10-05T01:28:04.057Z,9.88
2022-10-05T01:29:03.978Z,9.88
2022-10-05T01:30:03.992Z,9.88
2022-10-05T01:31:04.127Z,9.81
2022-10-05T01:32:04.156Z,9.81
2022-10-05T01:33:04.231Z,9.81
2022-10-05T01:34:07.879Z,9.81
2022-10-05T01:35:04.140Z,9.81
2022-10-05T01:36:04.182Z,9.81
2022-10-05T01:37:04.142Z,9.81
2022-10-05T01:38:04.227Z,9.75
2022-10-05T01:39:04.230Z,9.75
2022-10-05T01:40:04.152Z,9.75
2022-10-05T01:41:04.065Z,9.75
2022-10-05T01:42:04.150Z,9.75
2022-10-05T01:43:04.258Z,9.69
2022-10-05T01:44:04.223Z,9.69
2022-10-05T01:45:04.313Z,9.69
2022-10-05T01:46:04.360Z,9.69
2022-10-05T01:47:04.311Z,9.69
2022-10-05T01:48:04.338Z,9.69
2022-10-05T01:49:04.312Z,9.69
2022-10-05T01:50:04.403Z,9.69
2022-10-05T01:51:04.478Z,9.69
2022-10-05T01:52:04.303Z,9.69
2022-10-05T01:53:04.404Z,9.62
2022-10-05T01:54:04.394Z,9.62
2022-10-05T01:55:04.416Z,9.69
2022-10-05T01:56:04.385Z,9.69
2022-10-05T01:57:04.477Z,9.62
2022-10-05T01:58:04.392Z,9.62
2022-10-05T01:59:04.548Z,9.62
2022-10-05T02:00:04.467Z,9.62
2022-10-05T02:01:04.465Z,9.62
2022-10-05T02:02:04.522Z,9.62
2022-10-05T02:03:04.462Z,9.62
2022-10-05T02:04:04.336Z,9.62
2022-10-05T02:05:04.239Z,9.62
2022-10-05T02:06:04.298Z,9.62
2022-10-05T02:07:04.219Z,9.62
2022-10-05T02:08:04.219Z,9.62
2022-10-05T02:09:04.253Z,9.62
2022-10-05T02:10:04.229Z,9.62
2022-10-05T02:11:04.227Z,9.62
2022-10-05T02:12:04.222Z,9.69
2022-10-05T02:13:04.253Z,9.69
2022-10-05T02:14:04.146Z,9.69
2022-10-05T02:15:04.062Z,9.69
2022-10-05T02:16:04.189Z,9.69
2022-10-05T02:17:04.308Z,9.69
2022-10-05T02:18:04.228Z,9.69
2022-10-05T02:19:04.148Z,9.69
2022-10-05T02:20:04.067Z,9.69
2022-10-05T02:21:04.062Z,9.69
2022-10-05T02:22:04.001Z,9.75
2022-10-05T02:23:04.225Z,9.69
2022-10-05T02:24:04.076Z,9.69
2022-10-05T02:25:04.145Z,9.69
2022-10-05T02:26:04.067Z,9.75
2022-10-05T02:27:04.076Z,9.69
2022-10-05T02:28:04.011Z,9.75
2022-10-05T02:29:03.985Z,9.75
2022-10-05T02:30:03.902Z,9.75
2022-10-05T02:31:04.009Z,9.75
2022-10-05T02:32:03.907Z,9.75
2022-10-05T02:33:03.900Z,9.81
2022-10-05T02:34:04.067Z,9.81
2022-10-05T02:35:03.988Z,9.81
2022-10-05T02:36:03.979Z,9.81
2022-10-05T02:37:03.909Z,9.81
2022-10-05T02:38:03.984Z,9.81
2022-10-05T02:39:03.906Z,9.81
2022-10-05T02:40:03.909Z,9.81
2022-10-05T02:41:03.818Z,9.88
2022-10-05T02:42:03.819Z,9.88
2022-10-05T02:43:03.997Z,9.88
2022-10-05T02:44:03.897Z,9.88
2022-10-05T02:45:03.829Z,9.88
2022-10-05T02:46:03.861Z,9.88
2022-10-05T02:47:03.830Z,9.88
2022-10-05T02:48:04.732Z,9.88
2022-10-05T02:49:03.669Z,9.88
2022-10-05T02:50:03.752Z,9.88
2022-10-05T02:51:03.786Z,9.88
2022-10-05T02:52:03.748Z,9.88
2022-10-05T02:53:03.665Z,9.88
2022-10-05T02:54:04.064Z,9.88
2022-10-05T02:55:03.986Z,9.88
2022-10-05T02:56:03.942Z,9.88
2022-10-05T02:57:03.987Z,9.81
2022-10-05T02:58:04.017Z,9.81
2022-10-05T02:59:04.072Z,9.81
2022-10-05T03:00:04.309Z,9.81
2022-10-05T03:01:04.351Z,9.81
2022-10-05T03:02:04.354Z,9.75
2022-10-05T03:03:04.480Z,9.75
2022-10-05T03:04:04.390Z,9.75
2022-10-05T03:05:04.387Z,9.75
2022-10-05T03:06:04.319Z,9.75
2022-10-05T03:07:04.407Z,9.69
2022-10-05T03:08:04.391Z,9.69
2022-10-05T03:09:04.313Z,9.69
2022-10-05T03:10:04.226Z,9.69
2022-10-05T03:11:04.403Z,9.69
2022-10-05T03:12:04.394Z,9.69
2022-10-05T03:13:04.465Z,9.69
2022-10-05T03:14:03.509Z,9.75
2022-10-05T03:15:03.581Z,9.69
2022-10-05T03:16:03.619Z,9.75
2022-10-05T03:17:03.585Z,9.75
2022-10-05T03:18:04.469Z,9.75
2022-10-05T03:19:03.502Z,9.75
2022-10-05T03:20:03.580Z,9.75
2022-10-05T03:21:03.582Z,9.75
2022-10-05T03:22:03.588Z,9.75
2022-10-05T03:23:03.507Z,9.75
2022-10-05T03:24:03.580Z,9.69
2022-10-05T03:25:03.675Z,9.75
2022-10-05T03:26:03.671Z,9.75
2022-10-05T03:27:03.708Z,9.69
2022-10-05T03:28:03.610Z,9.69
2022-10-05T03:29:03.676Z,9.69
2022-10-05T03:30:03.749Z,9.69
2022-10-05T03:31:03.727Z,9.69
2022-10-05T03:32:03.834Z,9.69
2022-10-05T03:33:03.743Z,9.69
2022-10-05T03:34:03.824Z,9.69
2022-10-05T03:35:03.835Z,9.69
2022-10-05T03:36:03.845Z,9.62
2022-10-05T03:37:03.765Z,9.62
2022-10-05T03:38:03.831Z,9.62
2022-10-05T03:39:03.827Z,9.62
2022-10-05T03:40:03.752Z,9.62
2022-10-05T03:41:03.755Z,9.56
2022-10-05T03:42:03.781Z,9.56
2022-10-05T03:43:03.761Z,9.50
2022-10-05T03:44:03.667Z,9.50
2022-10-05T03:45:03.587Z,9.50
2022-10-05T03:46:03.621Z,9.50
2022-10-05T03:47:03.581Z,9.44
2022-10-05T03:48:03.572Z,9.44
2022-10-05T03:49:03.700Z,9.44
2022-10-05T03:50:03.654Z,9.44
2022-10-05T03:51:03.756Z,9.38
2022-10-05T03:52:03.580Z,9.38
2022-10-05T03:53:03.758Z,9.38
2022-10-05T03:54:03.670Z,9.38
2022-10-05T03:55:03.662Z,9.38
2022-10-05T03:56:03.680Z,9.31
2022-10-05T03:57:03.592Z,9.31
2022-10-05T03:58:03.591Z,9.31
2022-10-05T03:59:03.515Z,9.31
2022-10-05T04:00:03.517Z,9.31
2022-10-05T04:01:03.418Z,9.31
2022-10-05T04:02:03.505Z,9.31
2022-10-05T04:03:03.689Z,9.25
2022-10-05T04:04:03.590Z,9.25
2022-10-05T04:05:03.590Z,9.25
2022-10-05T04:06:03.590Z,9.25
2022-10-05T04:07:03.510Z,9.25
2022-10-05T04:08:03.668Z,9.25
2022-10-05T04:09:03.499Z,9.25
2022-10-05T04:10:04.381Z,9.25
2022-10-05T04:11:04.466Z,9.25
2022-10-05T04:12:04.383Z,9.19
2022-10-05T04:13:04.417Z,9.25
2022-10-05T04:14:04.305Z,9.19
2022-10-05T04:15:04.477Z,9.19
2022-10-05T04:16:04.384Z,9.19
2022-10-05T04:17:04.475Z,9.19
2022-10-05T04:18:04.406Z,9.19
2022-10-05T04:19:04.390Z,9.19
2022-10-05T04:20:04.475Z,9.19
2022-10-05T04:21:04.399Z,9.19
2022-10-05T04:22:04.391Z,9.19
2022-10-05T04:23:03.515Z,9.19
2022-10-05T04:24:04.587Z,9.19
2022-10-05T04:25:03.923Z,9.19
2022-10-05T04:26:03.817Z,9.25
2022-10-05T04:27:03.907Z,9.25
2022-10-05T04:28:03.861Z,9.25
2022-10-05T04:29:03.835Z,9.25
2022-10-05T04:30:03.739Z,9.25
2022-10-05T04:31:03.821Z,9.25
2022-10-05T04:32:03.819Z,9.31
2022-10-05T04:33:03.738Z,9.31
2022-10-05T04:34:03.746Z,9.31
2022-10-05T04:35:03.745Z,9.38
2022-10-05T04:36:03.669Z,9.38
2022-10-05T04:37:03.754Z,9.38
2022-10-05T04:38:03.905Z,9.38
2022-10-05T04:39:03.841Z,9.38
2022-10-05T04:40:03.898Z,9.38
2022-10-05T04:41:03.820Z,9.44
2022-10-05T04:42:03.822Z,9.44
2022-10-05T04:43:03.872Z,9.44
2022-10-05T04:44:03.852Z,9.44
2022-10-05T04:45:03.830Z,9.44
2022-10-05T04:46:03.751Z,9.50
2022-10-05T04:47:03.791Z,9.50
2022-10-05T04:48:03.829Z,9.50
2022-10-05T04:49:03.819Z,9.50
2022-10-05T04:50:03.831Z,9.50
2022-10-05T04:51:03.909Z,9.50
2022-10-05T04:52:03.905Z,9.50
2022-10-05T04:53:03.823Z,9.50
2022-10-05T04:54:03.928Z,9.50
2022-10-05T04:55:03.896Z,9.56
2022-10-05T04:56:03.994Z,9.56
2022-10-05T04:57:03.903Z,9.56
2022-10-05T04:58:03.910Z,9.56
2022-10-05T04:59:04.091Z,9.56
2022-10-05T05:00:04.074Z,9.62
2022-10-05T05:01:04.089Z,9.69
2022-10-05T05:02:04.069Z,9.69
2022-10-05T05:03:04.233Z,9.75
2022-10-05T05:04:04.316Z,9.75
2022-10-05T05:05:04.226Z,9.75
2022-10-05T05:06:17.625Z,9.75
2022-10-05T05:07:04.228Z,9.81
2022-10-05T05:08:04.154Z,9.88
2022-10-05T05:09:04.152Z,9.94
2022-10-05T05:10:04.142Z,9.88
2022-10-05T05:11:04.141Z,9.94
2022-10-05T05:12:03.995Z,9.94
2022-10-05T05:13:03.990Z,9.94
2022-10-05T05:14:03.977Z,10.00
2022-10-05T05:15:04.058Z,10.00
2022-10-05T05:16:05.053Z,10.06
2022-10-05T05:17:04.232Z,10.12
2022-10-05T05:18:04.392Z,10.12
2022-10-05T05:19:04.401Z,10.12
2022-10-05T05:20:04.302Z,10.12
2022-10-05T05:21:04.304Z,10.12
2022-10-05T05:22:04.390Z,10.12
2022-10-05T05:23:03.755Z,10.19
2022-10-05T05:24:03.837Z,10.25
2022-10-05T05:25:03.826Z,10.25
2022-10-05T05:26:03.823Z,10.25
2022-10-05T05:27:03.916Z,10.31
2022-10-05T05:28:04.821Z,10.38
2022-10-05T05:29:03.907Z,10.44
2022-10-05T05:30:04.058Z,10.44
2022-10-05T05:31:03.929Z,10.44
2022-10-05T05:32:04.075Z,10.50
2022-10-05T05:33:04.070Z,10.56
2022-10-05T05:34:04.147Z,10.56
2022-10-05T05:35:04.325Z,10.56
2022-10-05T05:36:04.308Z,10.62
2022-10-05T05:37:04.312Z,10.62
2022-10-05T05:38:04.468Z,10.62
2022-10-05T05:39:04.385Z,10.69
2022-10-05T05:40:03.520Z,10.69
2022-10-05T05:41:03.522Z,10.75
2022-10-05T05:42:03.634Z,10.75
2022-10-05T05:43:03.586Z,10.81
2022-10-05T05:44:03.579Z,10.81
2022-10-05T05:45:03.673Z,10.81
2022-10-05T05:46:03.659Z,10.88
2022-10-05T05:47:04.998Z,10.88
2022-10-05T05:48:03.819Z,10.88
2022-10-05T05:49:03.993Z,10.88
2022-10-05T05:50:07.198Z,10.94
2022-10-05T05:51:03.932Z,10.88
2022-10-05T05:52:03.927Z,10.94
2022-10-05T05:53:03.819Z,10.94
2022-10-05T05:54:03.816Z,10.94
2022-10-05T05:55:03.903Z,11.00
2022-10-05T05:56:03.996Z,11.00
2022-10-05T05:57:03.911Z,11.00
2022-10-05T05:58:04.023Z,11.00
2022-10-05T05:59:03.989Z,11.00
2022-10-05T06:00:03.962Z,11.00
2022-10-05T06:01:04.082Z,11.00
2022-10-05T06:02:04.186Z,11.06
2022-10-05T06:03:04.322Z,11.06
2022-10-05T06:04:04.319Z,11.06
2022-10-05T06:05:04.379Z,11.12
2022-10-05T06:06:03.425Z,11.12
2022-10-05T06:07:03.601Z,11.19
2022-10-05T06:08:03.511Z,11.19
2022-10-05T06:09:03.668Z,11.25
2022-10-05T06:10:03.670Z,11.25
2022-10-05T06:11:03.672Z,11.25
2022-10-05T06:12:04.072Z,11.38
2022-10-05T06:13:04.384Z,11.38
2022-10-05T06:14:04.468Z,11.38
2022-10-05T06:15:04.399Z,11.38
2022-10-05T06:16:04.454Z,11.44
2022-10-05T06:17:04.384Z,11.50
2022-10-05T06:18:03.497Z,11.69
2022-10-05T06:19:03.588Z,11.75
2022-10-05T06:20:05.383Z,11.88
2022-10-05T06:21:03.669Z,12.00
2022-10-05T06:22:03.785Z,12.06
2022-10-05T06:23:03.759Z,12.25
2022-10-05T06:24:03.837Z,12.38
2022-10-05T06:25:03.753Z,12.50
2022-10-05T06:26:07.057Z,12.69
2022-10-05T06:27:03.755Z,12.88
2022-10-05T06:28:03.956Z,13.00
2022-10-05T06:29:03.912Z,13.19
2022-10-05T06:30:03.910Z,13.31
2022-10-05T06:31:04.063Z,13.50
2022-10-05T06:32:04.001Z,13.69
2022-10-05T06:33:04.150Z,13.81
2022-10-05T06:34:04.058Z,13.94
2022-10-05T06:35:03.989Z,14.06
2022-10-05T06:36:04.138Z,14.25
2022-10-05T06:37:04.220Z,14.44
2022-10-05T06:38:04.315Z,14.62
2022-10-05T06:39:04.312Z,14.75
2022-10-05T06:40:04.396Z,14.94
2022-10-05T06:41:04.395Z,15.12
2022-10-05T06:42:03.505Z,15.25
2022-10-05T06:43:03.681Z,15.44
2022-10-05T06:44:03.595Z,15.56
2022-10-05T06:45:03.668Z,15.69
2022-10-05T06:46:03.643Z,15.88
2022-10-05T06:47:03.669Z,16.00
2022-10-05T06:48:05.475Z,16.19
2022-10-05T06:49:03.839Z,16.31
2022-10-05T06:50:03.750Z,16.50
2022-10-05T06:51:03.834Z,16.69
2022-10-05T06:52:03.851Z,16.81
2022-10-05T06:53:03.583Z,16.94
2022-10-05T06:54:03.581Z,17.06
2022-10-05T06:55:04.154Z,17.06
2022-10-05T06:56:04.235Z,17.12
2022-10-05T06:57:04.068Z,17.25
2022-10-05T06:58:04.223Z,17.38
2022-10-05T06:59:04.308Z,17.44
2022-10-05T07:00:04.265Z,17.56
2022-10-05T07:01:04.311Z,17.62
2022-10-05T07:02:04.268Z,17.69
2022-10-05T07:03:04.232Z,17.81
2022-10-05T07:04:04.223Z,17.94
2022-10-05T07:05:04.220Z,18.00
2022-10-05T07:06:04.311Z,18.12
2022-10-05T07:07:04.303Z,18.25
2022-10-05T07:08:04.473Z,18.38
2022-10-05T07:09:04.474Z,18.50
2022-10-05T07:10:03.512Z,18.62
2022-10-05T07:11:03.586Z,18.69
2022-10-05T07:12:05.298Z,18.81
2022-10-05T07:13:03.752Z,18.81
2022-10-05T07:14:03.685Z,18.88
2022-10-05T07:15:03.589Z,19.00
2022-10-05T07:16:03.747Z,19.06
2022-10-05T07:17:03.690Z,19.12
2022-10-05T07:18:03.832Z,19.19
2022-10-05T07:19:03.826Z,19.25
2022-10-05T07:20:03.839Z,19.31
2022-10-05T07:21:03.834Z,19.31
2022-10-05T07:22:04.449Z,19.31
2022-10-05T07:23:03.508Z,19.38
2022-10-05T07:24:03.599Z,19.44
2022-10-05T07:25:03.598Z,19.44
2022-10-05T07:26:03.673Z,19.50
2022-10-05T07:27:03.827Z,19.56
2022-10-05T07:28:03.826Z,19.56
2022-10-05T07:29:03.910Z,19.62
2022-10-05T07:30:03.910Z,19.62
2022-10-05T07:31:03.964Z,19.69
2022-10-05T07:32:03.917Z,19.69
2022-10-05T07:33:03.904Z,19.62
2022-10-05T07:34:03.918Z,19.62
2022-10-05T07:35:03.841Z,19.69
2022-10-05T07:36:03.771Z,19.75
2022-10-05T07:37:03.748Z,19.81
2022-10-05T07:38:03.671Z,19.88
2022-10-05T07:39:03.677Z,19.81
2022-10-05T07:40:03.673Z,19.88
2022-10-05T07:41:03.602Z,19.88
2022-10-05T07:42:03.584Z,19.94
2022-10-05T07:43:03.750Z,19.94
2022-10-05T07:44:04.997Z,20.00
2022-10-05T07:45:03.918Z,20.06
2022-10-05T07:46:04.883Z,20.12
2022-10-05T07:47:04.073Z,20.19
2022-10-05T07:48:03.994Z,20.31
2022-10-05T07:49:03.993Z,20.38
2022-10-05T07:50:04.071Z,20.38
2022-10-05T07:51:04.067Z,20.31
2022-10-05T07:52:04.146Z,20.25
2022-10-05T07:53:04.319Z,20.19
2022-10-05T07:54:04.418Z,20.12
2022-10-05T07:55:04.345Z,20.06
2022-10-05T07:56:04.313Z,20.00
2022-10-05T07:57:04.398Z,20.06
2022-10-05T07:58:04.477Z,20.00
2022-10-05T07:59:03.506Z,19.94
2022-10-05T08:00:03.508Z,19.88
2022-10-05T08:01:03.595Z,19.81
2022-10-05T08:02:03.831Z,19.81
2022-10-05T08:03:03.750Z,19.81
2022-10-05T08:04:03.933Z,19.75
2022-10-05T08:05:03.921Z,19.75
2022-10-05T08:06:03.838Z,19.75
2022-10-05T08:07:03.830Z,19.69
2022-10-05T08:08:03.837Z,19.69
2022-10-05T08:09:03.842Z,19.69
2022-10-05T08:10:03.830Z,19.75
2022-10-05T08:11:03.828Z,19.75
2022-10-05T08:13:03.823Z,19.62
2022-10-05T08:14:03.908Z,19.62
2022-10-05T08:15:03.830Z,19.62
2022-10-05T08:16:03.917Z,19.62
2022-10-05T08:17:04.068Z,19.56
2022-10-05T08:18:04.150Z,19.56
2022-10-05T08:19:03.602Z,19.56
2022-10-05T08:20:03.590Z,19.56
2022-10-05T08:21:03.505Z,19.50
2022-10-05T08:22:03.677Z,19.50
2022-10-05T08:23:03.769Z,19.44
2022-10-05T08:24:03.768Z,19.44
2022-10-05T08:25:03.747Z,19.38
2022-10-05T08:26:03.834Z,19.38
2022-10-05T08:27:03.822Z,19.31
2022-10-05T08:28:04.098Z,19.25
2022-10-05T08:29:03.905Z,19.25
2022-10-05T08:30:03.993Z,19.19
2022-10-05T08:31:04.151Z,19.19
2022-10-05T08:32:04.062Z,19.12
2022-10-05T08:33:04.164Z,19.12
2022-10-05T08:34:04.149Z,19.06
2022-10-05T08:35:04.233Z,19.06
2022-10-05T08:36:04.311Z,19.06
2022-10-05T08:37:04.387Z,19.06
2022-10-05T08:38:03.501Z,19.06
2022-10-05T08:39:03.590Z,19.06
2022-10-05T08:40:03.495Z,19.00
2022-10-05T08:41:03.608Z,19.00
2022-10-05T08:42:03.426Z,18.94
2022-10-05T08:43:03.499Z,18.94
2022-10-05T08:44:03.667Z,18.94
2022-10-05T08:45:03.582Z,18.94
2022-10-05T08:46:03.611Z,18.94
2022-10-05T08:47:03.658Z,18.94
2022-10-05T08:48:03.751Z,18.94
2022-10-05T08:49:03.824Z,18.94
2022-10-05T08:50:03.747Z,18.94
2022-10-05T08:51:03.981Z,18.94
2022-10-05T08:52:03.908Z,18.88
2022-10-05T08:53:03.976Z,18.88
2022-10-05T08:54:04.062Z,18.88
2022-10-05T08:55:04.143Z,18.88
2022-10-05T08:56:04.219Z,18.88
2022-10-05T08:57:04.333Z,18.88
2022-10-05T08:58:04.324Z,18.88
2022-10-05T08:59:04.226Z,18.88
2022-10-05T09:00:04.409Z,18.81
2022-10-05T09:01:04.447Z,18.81
2022-10-05T09:02:04.523Z,18.81
2022-10-05T09:03:04.485Z,18.81
2022-10-05T09:04:04.485Z,18.81
2022-10-05T09:05:03.593Z,18.81
2022-10-05T09:06:03.602Z,18.81
2022-10-05T09:07:03.515Z,18.81
2022-10-05T09:08:03.676Z,18.75
2022-10-05T09:09:03.519Z,18.75
2022-10-05T09:10:03.586Z,18.75
2022-10-05T09:11:03.745Z,18.75
2022-10-05T09:12:03.836Z,18.75
2022-10-05T09:13:03.862Z,18.75
2022-10-05T09:14:03.933Z,18.69
2022-10-05T09:15:24.643Z,18.69
2022-10-05T09:16:03.959Z,18.69
2022-10-05T09:17:03.908Z,18.69
2022-10-05T09:18:04.077Z,18.69
2022-10-05T09:19:04.153Z,18.69
2022-10-05T09:20:03.995Z,18.69
2022-10-05T09:21:04.064Z,18.69
2022-10-05T09:22:04.063Z,18.69
2022-10-05T09:23:04.306Z,18.69
2022-10-05T09:24:04.383Z,18.75
2022-10-05T09:25:04.456Z,18.75
2022-10-05T09:26:03.588Z,18.75
2022-10-05T09:27:03.583Z,18.81
2022-10-05T09:28:03.740Z,18.81
2022-10-05T09:29:03.699Z,18.81
2022-10-05T09:30:03.766Z,18.81
2022-10-05T09:31:03.867Z,18.88
2022-10-05T09:32:03.755Z,18.88
2022-10-05T09:33:03.908Z,18.88
2022-10-05T09:34:03.911Z,18.94
2022-10-05T09:35:04.066Z,18.94
2022-10-05T09:36:04.074Z,18.94
2022-10-05T09:37:04.070Z,19.00
2022-10-05T09:38:04.183Z,19.00
2022-10-05T09:39:04.154Z,19.06
2022-10-05T09:40:04.250Z,19.06
2022-10-05T09:41:04.304Z,19.12
2022-10-05T09:42:04.302Z,19.12
2022-10-05T09:43:04.400Z,19.19
2022-10-05T09:44:03.510Z,19.19
2022-10-05T09:45:03.518Z,19.25
2022-10-05T09:46:03.595Z,19.25
2022-10-05T09:47:03.508Z,19.25
2022-10-05T09:48:03.679Z,19.25
2022-10-05T09:49:03.597Z,19.31
2022-10-05T09:50:03.596Z,19.31
2022-10-05T09:51:03.500Z,19.31
2022-10-05T09:52:03.585Z,19.38
2022-10-05T09:53:03.497Z,19.38
2022-10-05T09:54:03.510Z,19.38
2022-10-05T09:55:03.501Z,19.38
2022-10-05T09:56:03.503Z,19.38
2022-10-05T09:57:03.505Z,19.38
2022-10-05T09:58:03.580Z,19.38
2022-10-05T09:59:03.762Z,19.38
2022-10-05T10:00:03.719Z,19.38
2022-10-05T10:01:09.359Z,19.44
2022-10-05T10:02:03.790Z,19.44
2022-10-05T10:03:03.994Z,19.44
2022-10-05T10:04:03.982Z,19.44
2022-10-05T10:05:03.994Z,19.44
2022-10-05T10:06:03.988Z,19.44
2022-10-05T10:07:03.918Z,19.44
2022-10-05T10:08:04.068Z,19.44
2022-10-05T10:09:04.072Z,19.44
2022-10-05T10:10:04.067Z,19.50
2022-10-05T10:11:04.229Z,19.50
2022-10-05T10:12:04.305Z,19.50
2022-10-05T10:13:04.302Z,19.50
2022-10-05T10:14:04.393Z,19.56
2022-10-05T10:15:04.385Z,19.50
2022-10-05T10:16:04.568Z,19.50
2022-10-05T10:17:04.545Z,19.50
2022-10-05T10:18:04.474Z,19.50
2022-10-05T10:19:03.511Z,19.50
2022-10-05T10:20:03.526Z,19.56
2022-10-05T10:21:03.581Z,19.56
2022-10-05T10:22:03.665Z,19.56
2022-10-05T10:23:03.662Z,19.56
2022-10-05T10:24:03.749Z,19.56
2022-10-05T10:25:03.660Z,19.56
2022-10-05T10:26:03.737Z,19.56
2022-10-05T10:27:03.742Z,19.56
2022-10-05T10:28:03.788Z,19.56
2022-10-05T10:29:03.740Z,19.62
2022-10-05T10:30:03.744Z,19.62
2022-10-05T10:31:03.784Z,19.62
2022-10-05T10:32:03.738Z,19.62
2022-10-05T10:33:03.677Z,19.62
2022-10-05T10:34:03.665Z,19.62
2022-10-05T10:35:03.747Z,19.62
2022-10-05T10:36:04.560Z,19.62
2022-10-05T10:37:03.901Z,19.69
2022-10-05T10:38:03.915Z,19.69
2022-10-05T10:39:03.905Z,19.69
2022-10-05T10:40:03.992Z,19.69
2022-10-05T10:41:04.081Z,19.69
2022-10-05T10:42:03.987Z,19.69
2022-10-05T10:43:04.084Z,19.69
2022-10-05T10:44:04.228Z,19.69
2022-10-05T10:45:04.161Z,19.69
2022-10-05T10:46:04.114Z,19.69
2022-10-05T10:47:04.152Z,19.69
2022-10-05T10:48:04.149Z,19.75
2022-10-05T10:49:04.237Z,19.75
2022-10-05T10:50:04.234Z,19.75
2022-10-05T10:51:04.392Z,19.75
2022-10-05T10:52:04.311Z,19.75
2022-10-05T10:53:04.547Z,19.75
2022-10-05T10:54:03.502Z,19.75
2022-10-05T10:55:04.073Z,19.81
2022-10-05T10:56:04.071Z,19.81
2022-10-05T10:57:03.991Z,19.81
2022-10-05T10:58:03.986Z,19.81
2022-10-05T10:59:04.061Z,19.81
2022-10-05T11:00:04.151Z,19.81
2022-10-05T11:01:04.317Z,19.81
2022-10-05T11:02:04.459Z,19.88
2022-10-05T11:03:04.343Z,19.88
2022-10-05T11:04:04.310Z,19.94
2022-10-05T11:05:04.313Z,19.88
2022-10-05T11:06:04.321Z,19.88
2022-10-05T11:07:04.395Z,19.94
2022-10-05T11:08:04.388Z,19.94
2022-10-05T11:09:04.470Z,19.94
2022-10-05T11:10:04.400Z,19.94
2022-10-05T11:11:04.394Z,19.94
2022-10-05T11:12:04.490Z,19.94
2022-10-05T11:13:04.548Z,19.94
2022-10-05T11:14:04.487Z,19.94
2022-10-05T11:15:04.396Z,20.00
2022-10-05T11:16:04.520Z,20.00
2022-10-05T11:17:04.481Z,20.00
2022-10-05T11:18:03.502Z,20.00
2022-10-05T11:19:03.512Z,19.94
2022-10-05T11:20:04.663Z,19.94
2022-10-05T11:21:03.660Z,20.00
2022-10-05T11:22:03.665Z,20.00
2022-10-05T11:23:03.668Z,19.94
2022-10-05T11:24:03.656Z,19.94
2022-10-05T11:25:03.745Z,19.94
2022-10-05T11:26:03.743Z,20.00
2022-10-05T11:27:03.841Z,20.00
2022-10-05T11:28:03.855Z,20.00
2022-10-05T11:29:03.840Z,20.00
2022-10-05T11:30:03.915Z,20.00
2022-10-05T11:31:03.879Z,20.06
2022-10-05T11:32:03.908Z,20.06
2022-10-05T11:33:03.908Z,20.06
2022-10-05T11:34:03.897Z,20.06
2022-10-05T11:35:03.991Z,20.00
2022-10-05T11:36:03.912Z,20.00
2022-10-05T11:37:03.897Z,20.00
2022-10-05T11:38:04.068Z,20.00
2022-10-05T11:39:04.070Z,20.00
2022-10-05T11:40:04.103Z,20.00
2022-10-05T11:41:04.159Z,20.00
2022-10-05T11:42:04.145Z,20.06
2022-10-05T11:43:04.152Z,20.06
2022-10-05T11:44:06.065Z,20.06
2022-10-05T11:45:04.148Z,20.06
2022-10-05T11:46:04.248Z,20.12
2022-10-05T11:47:04.307Z,20.12
2022-10-05T11:48:04.224Z,20.12
2022-10-05T11:49:04.257Z,20.12
2022-10-05T11:50:04.408Z,20.12
2022-10-05T11:51:04.226Z,20.12
2022-10-05T11:52:04.236Z,20.06
2022-10-05T11:53:04.167Z,20.12
2022-10-05T11:54:04.009Z,20.12
2022-10-05T11:55:12.129Z,20.12
2022-10-05T11:56:03.982Z,20.12
2022-10-05T11:57:04.068Z,20.12
2022-10-05T11:58:04.078Z,20.19
2022-10-05T11:59:04.072Z,20.19
2022-10-05T12:00:04.122Z,20.19
2022-10-05T12:01:04.066Z,20.19
2022-10-05T12:02:04.077Z,20.19
2022-10-05T12:03:04.233Z,20.19
2022-10-05T12:04:04.284Z,20.19
2022-10-05T12:05:04.074Z,20.19
2022-10-05T12:06:04.179Z,20.19
2022-10-05T12:07:04.150Z,20.12
2022-10-05T12:08:04.325Z,20.19
2022-10-05T12:09:04.227Z,20.19
2022-10-05T12:10:04.386Z,20.19
2022-10-05T12:11:04.305Z,20.19
2022-10-05T12:12:04.247Z,20.19
2022-10-05T12:13:04.225Z,20.19
2022-10-05T12:14:04.336Z,20.19
2022-10-05T12:15:04.387Z,20.19
2022-10-05T12:16:04.352Z,20.19
2022-10-05T12:17:04.469Z,20.19
2022-10-05T12:18:04.388Z,20.19
2022-10-05T12:19:04.389Z,20.19
2022-10-05T12:20:04.545Z,20.19
2022-10-05T12:21:03.511Z,20.19
2022-10-05T12:22:03.618Z,20.19
2022-10-05T12:23:03.593Z,20.25
2022-10-05T12:24:03.667Z,20.19
2022-10-05T12:25:03.587Z,20.19
2022-10-05T12:26:03.669Z,20.19
2022-10-05T12:27:03.754Z,20.25
2022-10-05T12:28:03.767Z,20.19
2022-10-05T12:29:03.744Z,20.19
2022-10-05T12:30:03.701Z,20.19
2022-10-05T12:31:03.741Z,20.19
2022-10-05T12:32:03.743Z,20.19
2022-10-05T12:33:03.824Z,20.19
2022-10-05T12:34:03.850Z,20.19
2022-10-05T12:35:03.751Z,20.19
2022-10-05T12:36:03.823Z,20.19
2022-10-05T12:37:04.906Z,20.19
2022-10-05T12:38:04.087Z,20.19
2022-10-05T12:39:04.068Z,20.19
2022-10-05T12:40:04.146Z,20.12
2022-10-05T12:41:04.061Z,20.12
2022-10-05T12:42:04.149Z,20.12
2022-10-05T12:43:04.073Z,20.12
2022-10-05T12:44:04.153Z,20.12
2022-10-05T12:45:04.244Z,20.12
2022-10-05T12:46:04.276Z,20.12
2022-10-05T12:47:04.320Z,20.12
2022-10-05T12:48:04.387Z,20.12
2022-10-05T12:49:04.468Z,20.12
2022-10-05T12:50:03.505Z,20.12
2022-10-05T12:51:04.558Z,20.12
2022-10-05T12:52:03.503Z,20.12
2022-10-05T12:53:03.499Z,20.12
2022-10-05T12:54:03.426Z,20.12
2022-10-05T12:55:03.525Z,20.12
2022-10-05T12:56:03.516Z,20.12
2022-10-05T12:57:03.511Z,20.12
2022-10-05T12:58:03.510Z,20.12
2022-10-05T12:59:03.592Z,20.12
2022-10-05T13:00:03.558Z,20.12
2022-10-05T13:01:03.589Z,20.12